createdAt,value
2018-09-22T00:00:06.851Z,3.97
2018-09-22T00:02:35.728Z,7.00
2018-09-22T00:05:05.137Z,5.93
2018-09-22T00:07:33.989Z,8.70
2018-09-22T00:10:02.972Z,7.40
2018-09-22T00:12:31.833Z,6.67
2018-09-22T00:15:01.524Z,10.93
2018-09-22T00:17:31.907Z,15.10
2018-09-22T00:20:01.384Z,6.60
2018-09-22T00:22:30.474Z,11.90
2018-09-22T00:24:59.466Z,5.63
2018-09-22T00:27:28.514Z,5.27
2018-09-22T00:29:57.352Z,8.70
2018-09-22T00:32:26.908Z,7.50
2018-09-22T00:34:57.184Z,4.50
2018-09-22T00:37:26.084Z,8.00
2018-09-22T00:39:56.133Z,10.07
2018-09-22T00:42:25.004Z,7.13
2018-09-22T00:44:54.417Z,11.23
2018-09-22T00:47:24.097Z,10.30
2018-09-22T00:49:53.686Z,6.33
2018-09-22T00:52:22.808Z,8.33
2018-09-22T00:54:52.301Z,8.13
2018-09-22T00:57:21.881Z,7.10
2018-09-22T00:59:51.043Z,5.00
2018-09-22T01:02:20.549Z,9.80
2018-09-22T01:04:50.033Z,9.60
2018-09-22T01:07:19.202Z,6.70
2018-09-22T01:09:48.755Z,10.03
2018-09-22T01:12:18.608Z,3.90
2018-09-22T01:14:47.895Z,7.57
2018-09-22T01:17:17.216Z,5.27
2018-09-22T01:19:46.516Z,6.73
2018-09-22T01:22:15.865Z,5.73
2018-09-22T01:24:45.122Z,4.80
2018-09-22T01:27:14.661Z,7.97
2018-09-22T01:29:43.926Z,11.50
2018-09-22T01:32:13.539Z,5.53
2018-09-22T01:34:42.516Z,4.80
2018-09-22T01:37:11.482Z,8.40
2018-09-22T01:39:41.038Z,8.63
2018-09-22T01:42:11.037Z,8.70
2018-09-22T01:44:40.077Z,7.80
2018-09-22T01:47:09.845Z,11.50
2018-09-22T01:49:39.970Z,6.87
2018-09-22T01:52:08.847Z,5.00
2018-09-22T01:54:38.293Z,5.50
2018-09-22T01:57:07.344Z,6.60
2018-09-22T01:59:36.883Z,5.63
2018-09-22T02:02:06.305Z,4.37
2018-09-22T02:04:36.271Z,8.10
2018-09-22T02:07:05.209Z,8.33
2018-09-22T02:09:34.154Z,12.23
2018-09-22T02:12:03.289Z,9.17
2018-09-22T02:14:32.282Z,15.03
2018-09-22T02:17:01.824Z,6.60
2018-09-22T02:19:30.787Z,9.80
2018-09-22T02:22:00.399Z,10.30
2018-09-22T02:24:30.165Z,9.37
2018-09-22T02:26:59.227Z,6.33
2018-09-22T02:29:28.064Z,7.27
2018-09-22T02:31:56.911Z,8.43
2018-09-22T02:34:25.895Z,7.07
2018-09-22T02:36:56.052Z,9.50
2018-09-22T02:39:24.958Z,6.67
2018-09-22T02:41:54.551Z,4.03
2018-09-22T02:44:24.594Z,10.37
2018-09-22T02:46:53.582Z,7.40
2018-09-22T02:49:22.853Z,14.07
2018-09-22T02:51:52.013Z,7.27
2018-09-22T02:54:21.613Z,8.40
2018-09-22T02:56:50.490Z,10.50
2018-09-22T02:59:20.191Z,13.60
2018-09-22T03:01:49.613Z,7.37
2018-09-22T03:04:19.066Z,10.37
2018-09-22T03:06:48.611Z,9.77
2018-09-22T03:09:17.904Z,6.73
2018-09-22T03:11:46.810Z,7.63
2018-09-22T03:14:16.107Z,10.43
2018-09-22T03:16:44.797Z,8.53
2018-09-22T03:19:14.586Z,12.97
2018-09-22T03:21:43.938Z,7.10
2018-09-22T03:24:12.952Z,11.23
2018-09-22T03:26:42.465Z,6.23
2018-09-22T03:29:11.733Z,12.20
2018-09-22T03:31:41.171Z,11.87
2018-09-22T03:34:10.055Z,11.20
2018-09-22T03:36:39.519Z,13.10
2018-09-22T03:39:10.651Z,9.03
2018-09-22T03:41:40.029Z,11.60
2018-09-22T03:44:09.838Z,10.40
2018-09-22T03:46:38.924Z,9.03
2018-09-22T03:49:08.736Z,8.40
2018-09-22T03:51:39.700Z,7.13
2018-09-22T03:54:09.222Z,10.33
2018-09-22T03:56:39.211Z,5.97
2018-09-22T03:59:07.666Z,11.53
2018-09-22T04:01:37.598Z,12.70
2018-09-22T04:04:06.577Z,6.37
2018-09-22T04:06:35.623Z,13.53
2018-09-22T04:09:06.112Z,9.23
2018-09-22T04:11:35.097Z,10.07
2018-09-22T04:14:05.125Z,9.17
2018-09-22T04:16:35.500Z,5.00
2018-09-22T04:19:05.255Z,9.90
2018-09-22T04:21:35.451Z,8.80
2018-09-22T04:24:10.080Z,9.30
2018-09-22T04:26:39.142Z,11.30
2018-09-22T04:29:08.732Z,10.23
2018-09-22T04:31:37.527Z,9.17
2018-09-22T04:34:06.939Z,12.47
2018-09-22T04:36:36.425Z,9.10
2018-09-22T04:39:06.429Z,6.77
2018-09-22T04:41:36.587Z,11.23
2018-09-22T04:44:05.860Z,8.33
2018-09-22T04:46:34.678Z,8.00
2018-09-22T04:49:04.127Z,9.87
2018-09-22T04:51:35.258Z,9.87
2018-09-22T04:54:04.182Z,9.20
2018-09-22T04:56:34.060Z,8.90
2018-09-22T04:59:04.803Z,13.90
2018-09-22T05:01:34.541Z,11.77
2018-09-22T05:04:03.512Z,8.97
2018-09-22T05:06:33.820Z,8.50
2018-09-22T05:09:02.961Z,10.83
2018-09-22T05:11:32.681Z,9.30
2018-09-22T05:14:01.634Z,8.23
2018-09-22T05:16:31.569Z,17.27
2018-09-22T05:19:01.283Z,9.93
2018-09-22T05:21:30.874Z,14.10
2018-09-22T05:24:00.206Z,10.73
2018-09-22T05:26:30.183Z,7.37
2018-09-22T05:28:59.953Z,8.50
2018-09-22T05:31:28.896Z,9.23
2018-09-22T05:33:57.724Z,7.77
2018-09-22T05:36:27.002Z,8.87
2018-09-22T05:38:56.099Z,13.93
2018-09-22T05:41:25.164Z,8.70
2018-09-22T05:43:54.899Z,7.27
2018-09-22T05:46:25.123Z,12.57
2018-09-22T05:48:54.137Z,9.70
2018-09-22T05:51:23.124Z,9.17
2018-09-22T05:53:52.142Z,8.80
2018-09-22T05:56:21.165Z,6.27
2018-09-22T05:58:50.497Z,8.60
2018-09-22T06:01:19.579Z,12.03
2018-09-22T06:03:49.435Z,7.77
2018-09-22T06:06:18.707Z,12.63
2018-09-22T06:08:48.716Z,7.17
2018-09-22T06:11:18.923Z,11.33
2018-09-22T06:13:48.339Z,11.33
2018-09-22T06:16:17.218Z,4.93
2018-09-22T06:18:46.715Z,13.10
2018-09-22T06:21:15.619Z,9.33
2018-09-22T06:23:44.618Z,11.37
2018-09-22T06:26:13.592Z,9.80
2018-09-22T06:28:42.506Z,8.83
2018-09-22T06:31:12.128Z,12.63
2018-09-22T06:33:41.937Z,13.10
2018-09-22T06:36:10.916Z,6.87
2018-09-22T06:38:40.902Z,9.50
2018-09-22T06:41:11.219Z,14.23
2018-09-22T06:43:40.884Z,7.27
2018-09-22T06:46:10.002Z,10.03
2018-09-22T06:48:40.268Z,10.83
2018-09-22T06:51:09.938Z,8.10
2018-09-22T06:53:39.634Z,12.13
2018-09-22T06:56:08.681Z,8.63
2018-09-22T06:58:37.712Z,15.87
2018-09-22T07:01:07.256Z,7.20
2018-09-22T07:03:37.685Z,7.20
2018-09-22T07:06:06.720Z,9.80
2018-09-22T07:08:36.508Z,8.30
2018-09-22T07:11:05.678Z,10.30
2018-09-22T07:13:34.718Z,8.67
2018-09-22T07:16:04.003Z,12.73
2018-09-22T07:18:33.941Z,9.33
2018-09-22T07:21:08.017Z,8.23
2018-09-22T07:23:37.518Z,12.00
2018-09-22T07:26:06.412Z,13.40
2018-09-22T07:28:35.590Z,14.83
2018-09-22T07:31:04.495Z,7.90
2018-09-22T07:33:33.674Z,13.30
2018-09-22T07:36:02.762Z,7.60
2018-09-22T07:38:33.087Z,7.60
2018-09-22T07:41:02.127Z,11.67
2018-09-22T07:43:31.849Z,11.50
2018-09-22T07:46:01.724Z,15.07
2018-09-22T07:48:31.443Z,8.93
2018-09-22T07:51:00.876Z,9.37
2018-09-22T07:53:29.961Z,9.47
2018-09-22T07:55:59.108Z,10.47
2018-09-22T07:58:28.021Z,11.90
2018-09-22T08:00:57.212Z,10.13
2018-09-22T08:03:26.240Z,9.07
2018-09-22T08:05:55.590Z,7.10
2018-09-22T08:08:25.165Z,7.37
2018-09-22T08:10:56.457Z,9.87
2018-09-22T08:13:25.451Z,9.50
2018-09-22T08:15:54.979Z,9.87
2018-09-22T08:18:24.522Z,11.60
2018-09-22T08:20:54.192Z,10.37
2018-09-22T08:23:24.408Z,9.87
2018-09-22T08:25:53.551Z,6.47
2018-09-22T08:28:22.711Z,14.07
2018-09-22T08:30:51.921Z,8.57
2018-09-22T08:33:20.898Z,12.97
2018-09-22T08:35:49.914Z,12.30
2018-09-22T08:38:19.189Z,13.07
2018-09-22T08:40:48.199Z,10.70
2018-09-22T08:43:17.901Z,13.23
2018-09-22T08:45:46.900Z,10.50
2018-09-22T08:48:16.026Z,12.50
2018-09-22T08:50:46.788Z,12.03
2018-09-22T08:53:15.958Z,8.90
2018-09-22T08:55:45.271Z,10.23
2018-09-22T08:58:15.477Z,11.43
2018-09-22T09:00:44.585Z,7.73
2018-09-22T09:03:13.668Z,11.60
2018-09-22T09:05:43.611Z,9.00
2018-09-22T09:08:13.128Z,8.47
2018-09-22T09:10:42.213Z,15.03
2018-09-22T09:13:11.802Z,9.07
2018-09-22T09:15:40.936Z,10.47
2018-09-22T09:18:09.884Z,7.37
2018-09-22T09:20:39.123Z,8.17
2018-09-22T09:23:08.104Z,6.47
2018-09-22T09:25:37.076Z,9.53
2018-09-22T09:28:06.331Z,6.80
2018-09-22T09:30:35.783Z,13.50
2018-09-22T09:33:04.725Z,11.20
2018-09-22T09:35:34.322Z,6.87
2018-09-22T09:38:04.225Z,5.40
2018-09-22T09:40:33.205Z,10.10
2018-09-22T09:43:01.981Z,6.57
2018-09-22T09:45:30.764Z,12.80
2018-09-22T09:47:59.838Z,12.83
2018-09-22T09:50:28.906Z,6.60
2018-09-22T09:52:59.850Z,7.37
2018-09-22T09:55:28.894Z,3.70
2018-09-22T09:57:58.694Z,8.60
2018-09-22T10:00:32.838Z,7.53
2018-09-22T10:03:01.778Z,10.90
2018-09-22T10:05:30.983Z,3.93
2018-09-22T10:08:00.641Z,5.50
2018-09-22T10:10:29.865Z,4.43
2018-09-22T10:12:58.895Z,16.07
2018-09-22T10:15:28.705Z,6.33
2018-09-22T10:17:57.688Z,2.83
2018-09-22T10:20:26.816Z,5.93
2018-09-22T10:22:56.386Z,6.10
2018-09-22T10:25:25.494Z,3.67
2018-09-22T10:27:54.646Z,4.67
2018-09-22T10:30:23.714Z,3.00
2018-09-22T10:32:52.703Z,5.23
2018-09-22T10:35:21.925Z,3.47
2018-09-22T10:37:51.084Z,4.93
2018-09-22T10:40:20.105Z,7.53
2018-09-22T10:42:50.419Z,4.07
2018-09-22T10:45:20.375Z,5.07
2018-09-22T10:47:49.968Z,9.67
2018-09-22T10:50:19.689Z,6.93
2018-09-22T10:52:49.391Z,2.43
2018-09-22T10:55:18.395Z,6.97
2018-09-22T10:57:47.312Z,5.50
2018-09-22T11:00:16.416Z,4.77
2018-09-22T11:02:45.791Z,10.50
2018-09-22T11:05:15.065Z,5.97
2018-09-22T11:07:44.276Z,7.43
2018-09-22T11:10:13.933Z,3.33
2018-09-22T11:12:42.888Z,4.47
2018-09-22T11:15:12.122Z,9.67
2018-09-22T11:17:40.918Z,7.53
2018-09-22T11:20:10.497Z,4.30
2018-09-22T11:22:39.552Z,6.80
2018-09-22T11:25:09.451Z,8.83
2018-09-22T11:27:38.828Z,7.13
2018-09-22T11:30:08.824Z,2.20
2018-09-22T11:32:37.902Z,4.87
2018-09-22T11:35:07.208Z,5.00
2018-09-22T11:37:36.905Z,3.20
2018-09-22T11:40:06.334Z,3.27
2018-09-22T11:42:35.450Z,5.83
2018-09-22T11:45:06.869Z,4.60
2018-09-22T11:47:35.983Z,6.23
2018-09-22T11:50:05.741Z,3.97
2018-09-22T11:52:34.730Z,3.23
2018-09-22T11:55:04.499Z,2.50
2018-09-22T11:57:33.618Z,8.73
2018-09-22T12:00:02.974Z,5.53
2018-09-22T12:02:32.060Z,4.77
2018-09-22T12:05:01.728Z,4.10
2018-09-22T12:07:30.941Z,6.73
2018-09-22T12:10:00.222Z,4.60
2018-09-22T12:12:29.876Z,4.53
2018-09-22T12:14:59.042Z,3.53
2018-09-22T12:17:28.049Z,4.83
2018-09-22T12:19:57.079Z,6.50
2018-09-22T12:22:26.336Z,7.30
2018-09-22T12:24:55.452Z,4.40
2018-09-22T12:27:24.449Z,11.80
2018-09-22T12:29:53.489Z,3.90
2018-09-22T12:32:22.667Z,4.93
2018-09-22T12:34:51.893Z,7.03
2018-09-22T12:37:20.967Z,4.07
2018-09-22T12:39:50.544Z,7.33
2018-09-22T12:42:20.675Z,4.33
2018-09-22T12:44:50.502Z,4.60
2018-09-22T12:47:19.486Z,8.67
2018-09-22T12:49:48.496Z,6.27
2018-09-22T12:52:17.537Z,4.67
2018-09-22T12:54:46.906Z,8.73
2018-09-22T12:57:18.334Z,6.40
2018-09-22T12:59:47.247Z,5.10
2018-09-22T13:02:16.478Z,4.40
2018-09-22T13:04:45.445Z,8.60
2018-09-22T13:07:17.470Z,5.17
2018-09-22T13:09:46.487Z,4.53
2018-09-22T13:12:17.693Z,5.73
2018-09-22T13:14:46.684Z,6.53
2018-09-22T13:17:16.987Z,5.20
2018-09-22T13:19:45.968Z,5.03
2018-09-22T13:22:15.091Z,5.07
2018-09-22T13:24:44.189Z,3.57
2018-09-22T13:27:14.288Z,4.53
2018-09-22T13:29:43.837Z,6.53
2018-09-22T13:32:12.919Z,5.93
2018-09-22T13:34:41.781Z,4.17
2018-09-22T13:37:10.710Z,8.97
2018-09-22T13:39:40.567Z,3.93
2018-09-22T13:42:10.090Z,4.53
2018-09-22T13:44:39.208Z,5.40
2018-09-22T13:47:10.036Z,7.07
2018-09-22T13:49:39.086Z,6.20
2018-09-22T13:52:08.197Z,2.60
2018-09-22T13:54:37.260Z,6.73
2018-09-22T13:57:06.704Z,5.63
2018-09-22T13:59:36.520Z,6.40
2018-09-22T14:02:07.765Z,5.27
2018-09-22T14:04:36.892Z,4.17
2018-09-22T14:07:06.131Z,3.97
2018-09-22T14:09:39.440Z,4.47
2018-09-22T14:12:09.169Z,6.87
2018-09-22T14:14:38.113Z,4.57
2018-09-22T14:17:07.098Z,3.07
2018-09-22T14:19:36.192Z,5.53
2018-09-22T14:22:05.138Z,9.47
2018-09-22T14:24:34.204Z,5.93
2018-09-22T14:27:03.321Z,5.73
2018-09-22T14:29:32.719Z,2.03
2018-09-22T14:32:03.141Z,5.37
2018-09-22T14:34:32.144Z,3.73
2018-09-22T14:37:01.182Z,5.77
2018-09-22T14:39:30.045Z,3.97
2018-09-22T14:41:59.556Z,7.13
2018-09-22T14:44:28.549Z,5.37
2018-09-22T14:46:57.567Z,5.83
2018-09-22T14:49:27.011Z,21.63
2018-09-22T14:52:01.719Z,5.13
2018-09-22T14:54:32.504Z,9.50
2018-09-22T14:57:02.251Z,4.27
2018-09-22T14:59:34.526Z,5.67
2018-09-22T15:02:08.146Z,2.30
2018-09-22T15:04:38.395Z,3.57
2018-09-22T15:07:07.412Z,4.83
2018-09-22T15:09:36.285Z,6.23
2018-09-22T15:12:05.349Z,8.87
2018-09-22T15:14:35.021Z,4.43
2018-09-22T15:17:04.753Z,7.57
2018-09-22T15:19:33.751Z,5.93
2018-09-22T15:22:02.661Z,7.20
2018-09-22T15:24:31.758Z,3.90
2018-09-22T15:27:00.699Z,2.00
2018-09-22T15:29:29.736Z,4.20
2018-09-22T15:31:59.323Z,3.07
2018-09-22T15:34:29.052Z,3.80
2018-09-22T15:36:58.167Z,3.47
2018-09-22T15:39:27.363Z,3.83
2018-09-22T15:41:57.987Z,2.50
2018-09-22T15:44:26.784Z,4.33
2018-09-22T15:46:55.593Z,4.23
2018-09-22T15:49:24.356Z,4.93
2018-09-22T15:51:53.411Z,4.93
2018-09-22T15:54:23.900Z,3.40
2018-09-22T15:56:52.983Z,5.20
2018-09-22T15:59:21.981Z,3.73
2018-09-22T16:01:51.120Z,5.10
2018-09-22T16:04:21.179Z,3.53
2018-09-22T16:06:50.233Z,6.33
2018-09-22T16:09:22.603Z,6.57
2018-09-22T16:11:51.824Z,7.63
2018-09-22T16:14:20.820Z,4.83
2018-09-22T16:16:50.585Z,5.43
2018-09-22T16:19:20.093Z,4.53
2018-09-22T16:21:48.959Z,2.93
2018-09-22T16:24:20.046Z,5.07
2018-09-22T16:26:48.828Z,5.47
2018-09-22T16:29:18.396Z,6.40
2018-09-22T16:31:47.678Z,6.67
2018-09-22T16:34:17.468Z,5.17
2018-09-22T16:36:46.490Z,8.40
2018-09-22T16:39:15.548Z,7.97
2018-09-22T16:41:44.702Z,7.63
2018-09-22T16:44:14.537Z,4.70
2018-09-22T16:46:43.722Z,5.30
2018-09-22T16:49:12.847Z,6.07
2018-09-22T16:51:41.881Z,6.47
2018-09-22T16:54:13.359Z,5.83
2018-09-22T16:56:43.484Z,6.53
2018-09-22T16:59:13.227Z,6.97
2018-09-22T17:01:43.397Z,6.70
2018-09-22T17:04:14.658Z,8.47
2018-09-22T17:06:43.779Z,8.70
2018-09-22T17:09:12.784Z,10.73
2018-09-22T17:11:41.510Z,8.87
2018-09-22T17:14:10.812Z,10.27
2018-09-22T17:16:40.132Z,14.07
2018-09-22T17:19:09.026Z,17.20
2018-09-22T17:21:38.931Z,9.40
2018-09-22T17:24:08.427Z,10.50
2018-09-22T17:26:37.492Z,7.30
2018-09-22T17:29:06.770Z,9.83
2018-09-22T17:31:36.663Z,8.23
2018-09-22T17:34:06.624Z,9.17
2018-09-22T17:36:35.667Z,10.60
2018-09-22T17:39:06.742Z,11.50
2018-09-22T17:41:36.846Z,8.53
2018-09-22T17:44:06.118Z,11.00
2018-09-22T17:46:35.178Z,6.97
2018-09-22T17:49:04.384Z,6.13
2018-09-22T17:51:33.810Z,8.13
2018-09-22T17:54:03.230Z,11.60
2018-09-22T17:56:32.425Z,8.93
2018-09-22T17:59:01.787Z,8.10
2018-09-22T18:01:31.147Z,10.87
2018-09-22T18:04:00.374Z,10.23
2018-09-22T18:06:29.607Z,7.87
2018-09-22T18:08:58.945Z,10.90
2018-09-22T18:11:28.124Z,10.27
2018-09-22T18:13:57.225Z,7.43
2018-09-22T18:16:26.542Z,7.93
2018-09-22T18:18:55.803Z,8.90
2018-09-22T18:21:25.364Z,12.33
2018-09-22T18:23:54.660Z,6.70
2018-09-22T18:26:23.960Z,11.80
2018-09-22T18:28:53.404Z,10.83
2018-09-22T18:31:22.680Z,9.43
2018-09-22T18:33:52.127Z,7.20
2018-09-22T18:36:21.287Z,5.90
2018-09-22T18:38:50.562Z,10.33
2018-09-22T18:41:19.850Z,7.33
2018-09-22T18:43:49.527Z,6.90
2018-09-22T18:46:18.879Z,7.40
2018-09-22T18:48:48.299Z,4.97
2018-09-22T18:51:17.617Z,5.30
2018-09-22T18:53:53.382Z,8.33
2018-09-22T18:56:22.574Z,5.20
2018-09-22T18:58:51.869Z,7.90
2018-09-22T19:01:21.110Z,9.10
2018-09-22T19:03:50.413Z,9.10
2018-09-22T19:06:19.924Z,8.13
2018-09-22T19:08:49.604Z,6.07
2018-09-22T19:11:19.043Z,4.73
2018-09-22T19:13:52.511Z,5.83
2018-09-22T19:16:26.473Z,5.30
2018-09-22T19:18:59.812Z,4.83
2018-09-22T19:21:32.713Z,5.33
2018-09-22T19:24:06.169Z,4.90
2018-09-22T19:26:39.665Z,9.40
2018-09-22T19:29:44.507Z,6.53
2018-09-22T19:32:17.103Z,5.00
2018-09-22T19:34:56.007Z,7.17
2018-09-22T19:37:33.996Z,6.53
2018-09-22T19:40:11.893Z,7.13
2018-09-22T19:42:48.243Z,7.03
2018-09-22T19:45:25.254Z,5.87
2018-09-22T19:47:59.441Z,7.27
2018-09-22T19:50:37.005Z,8.03
2018-09-22T19:53:06.340Z,9.13
2018-09-22T19:55:35.717Z,10.33
2018-09-22T19:58:05.151Z,10.07
2018-09-22T20:00:34.282Z,8.83
2018-09-22T20:03:03.504Z,9.10
2018-09-22T20:05:32.953Z,14.03
2018-09-22T20:08:02.079Z,10.07
2018-09-22T20:10:31.478Z,15.63
2018-09-22T20:13:00.723Z,10.40
2018-09-22T20:15:30.107Z,9.00
2018-09-22T20:17:59.512Z,14.00
2018-09-22T20:20:28.822Z,11.83
2018-09-22T20:22:57.994Z,12.93
2018-09-22T20:25:27.224Z,8.87
2018-09-22T20:27:57.656Z,10.60
2018-09-22T20:30:26.898Z,9.20
2018-09-22T20:32:56.057Z,12.60
2018-09-22T20:35:25.279Z,11.23
2018-09-22T20:37:54.444Z,13.60
2018-09-22T20:40:23.724Z,9.77
2018-09-22T20:42:53.090Z,12.63
2018-09-22T20:45:22.420Z,9.33
2018-09-22T20:47:51.615Z,10.27
2018-09-22T20:50:20.984Z,12.83
2018-09-22T20:52:50.289Z,8.13
2018-09-22T20:55:19.562Z,12.07
2018-09-22T20:57:48.905Z,14.73
2018-09-22T21:06:36.628Z,13.10
2018-09-22T21:09:07.639Z,10.33
2018-09-22T21:11:36.993Z,12.13
2018-09-22T21:14:06.271Z,13.37
2018-09-22T21:16:35.504Z,14.60
2018-09-22T21:19:04.689Z,13.33
2018-09-22T21:21:33.839Z,13.67
2018-09-22T21:24:03.100Z,13.70
2018-09-22T21:26:32.198Z,16.60
2018-09-22T21:29:03.330Z,15.57
2018-09-22T21:31:33.957Z,15.03
2018-09-22T21:34:03.090Z,16.03
2018-09-22T21:36:32.443Z,19.73
2018-09-22T21:39:01.783Z,18.07
2018-09-22T21:41:31.049Z,15.13
2018-09-22T21:44:00.377Z,19.00
2018-09-22T21:46:29.588Z,21.80
2018-09-22T21:48:58.916Z,15.87
2018-09-22T21:51:28.190Z,21.30
2018-09-22T21:53:57.373Z,22.07
2018-09-22T21:56:26.712Z,22.33
2018-09-22T21:58:55.938Z,19.63
2018-09-22T22:01:30.405Z,21.20
2018-09-22T22:03:59.741Z,21.60
2018-09-22T22:06:29.106Z,22.67
2018-09-22T22:08:58.229Z,18.97
2018-09-22T22:11:27.571Z,22.47
2018-09-22T22:13:56.946Z,22.13
2018-09-22T22:16:26.168Z,20.97
2018-09-22T22:18:55.351Z,21.40
2018-09-22T22:21:24.533Z,23.57
2018-09-22T22:23:53.646Z,21.53
2018-09-22T22:26:23.106Z,22.27
2018-09-22T22:28:52.462Z,23.73
2018-09-22T22:31:21.895Z,22.93
2018-09-22T22:33:51.855Z,25.27
2018-09-22T22:36:21.569Z,19.60
2018-09-22T22:38:50.726Z,18.10
2018-09-22T22:41:20.011Z,20.53
2018-09-22T22:43:49.282Z,16.70
2018-09-22T22:46:18.992Z,18.77
2018-09-22T22:48:48.353Z,16.07
2018-09-22T22:51:17.538Z,18.13
2018-09-22T22:53:46.921Z,13.80
2018-09-22T22:56:16.209Z,17.50
2018-09-22T22:58:49.378Z,17.57
2018-09-22T23:01:18.609Z,15.90
2018-09-22T23:03:47.740Z,16.97
2018-09-22T23:06:17.052Z,16.87
2018-09-22T23:08:47.074Z,19.13
2018-09-22T23:11:16.265Z,12.40
2018-09-22T23:13:45.472Z,16.80
2018-09-22T23:16:14.632Z,15.13
2018-09-22T23:18:43.973Z,13.57
2018-09-22T23:21:16.439Z,16.20
2018-09-22T23:23:45.717Z,16.57
2018-09-22T23:26:15.043Z,15.03
2018-09-22T23:28:44.324Z,13.00
2018-09-22T23:31:13.957Z,12.40
2018-09-22T23:33:43.857Z,13.07
2018-09-22T23:36:13.113Z,14.83
2018-09-22T23:38:42.818Z,11.13
2018-09-22T23:41:12.086Z,13.30
2018-09-22T23:43:41.200Z,13.70
2018-09-22T23:46:11.199Z,12.97
2018-09-22T23:48:40.530Z,17.03
2018-09-22T23:51:09.719Z,11.37
2018-09-22T23:53:38.928Z,11.07
2018-09-22T23:56:08.046Z,12.07
2018-09-22T23:58:37.205Z,16.93
